Warning: Javascript must be enabled to use all the features on this page!


Page Loading - Please Wait...

Click to hideNews Bulletins

Peak Streamflow for the Nation

USGS 01510000 OTSELIC RIVER AT CINCINNATUS NY

Cortland County, New York
Hydrologic Unit Code 02050102
Latitude  42°32'28", Longitude  75°53'59" NAD83
Drainage area 147  square miles
Contributing drainage area 147  square miles
Gage datum 1,031.11 feet above NAVD88
Output formats
Table
Graph
Tab-separated file
peakfq (watstore) format
Reselect output format
Water
Year
Date Gage
Height
(feet)
Stream-
flow
(cfs)
1935 1935-07-08   11,0002,7
1939 1939-02-20 9.34 4,440
1940 1940-04-08 9.86 5,700
1941 1941-04-06 9.44 4,980
1942 1942-03-17 9.51 4,610
1943 1942-12-30 10.67 8,390
1944 1944-03-17 9.66 4,950
1945 1945-03-17 9.67 4,990
1946 1945-10-02 9.78 5,250
1947 1947-04-06 9.59 4,400
1948 1948-03-20 10.27 6,670
1949 1948-12-30 8.28 2,860
1950 1950-04-04 10.68 7,830
1951 1951-03-31 9.91 5,750
1952 1952-07-10 9.05 4,100
1953 1952-12-11 9.01 3,620
1954 1954-02-21 8.38 2,700
1955 1955-03-11 10.19 3,700
1956 1955-10-30 9.37 4,310
1957 1957-01-23 8.91 4,050
1958 1958-04-07 7.90 3,480
1959 1959-01-22 9.65 5,630
1960 1960-03-31 8.60 4,750
1961 1961-02-26 9.55 5,920
1962 1962-03-31 6.47 2,890
1963 1963-03-27 7.66 3,960
1964 1964-03-05 10.23 6,670
1970 1970-04-10 7.48 3,180
1971 1971-04-14 7.81 3,540
1972 1972-06-23 9.39 5,5309
1973 1972-12-06 8.34 4,160
1974 1974-04-04 8.68 4,580
1975 1975-09-26 9.04 5,050
1976 1976-04-16 7.77 3,670
1977 1977-03-13 10.05 6,730
1978 1978-04-02 7.562 3,460
1979 1979-03-06 9.88 6,720
1980 1980-03-22 9.03 5,380
1981 1981-02-21 7.78 3,930
1982 1982-04-01 6.082 2,440
1983 1983-04-25 6.51 2,170
1984 1983-12-14 9.45 6,400
1985 1985-03-12 5.96 2,360
1986 1986-03-15 9.22 6,010
1987 1986-11-26 6.62 3,520
1988 1988-03-26 7.11 3,930
1989 1989-06-01 6.17 3,060
1990 1990-02-17 6.00 2,910
1991 1990-10-24 8.99 5,960
1992 1992-06-01 6.11 2,960
1993 1993-04-11 9.94 7,130
1994 1994-04-16 7.68 4,500
1995 1994-12-05 4.61 1,820
1996 1996-01-19 10.891 8,0002
1997 1996-12-02 8.78 5,100
1998 1998-01-08 7.83 4,670
1999 1999-01-24 7.86 4,700
2000 2000-02-28 8.26 5,420
2001 2001-04-09   4,3002
2002 2002-09-28 6.16 3,220
2003 2003-03-21 6.89 3,830
2004 2003-12-11 6.73 3,690
2005 2005-04-03 10.55 7,700
2006 2006-06-28 9.59 6,480
2007 2007-03-15 8.00 4,840
2008 2008-03-08 7.20 4,010
2009 2009-03-09 6.48 3,280
2010 2010-01-25 7.26 4,070
2011 2011-09-08 9.63 6,7409
2012 2012-01-27 5.25 2,200
2013 2013-07-01 7.95 4,720
2014 2014-03-30 6.39 3,150
2015 2015-04-10 6.45 3,200
2016 2016-02-16 6.02 2,820
2017 2017-02-25 6.66 3,400
2018 2018-01-13 6.60 3,350
2019 2019-02-08 5.70 2,550
2020 2019-11-01 9.13 6,100
?
  Peak Gage-Height Qualification Codes.
?
  Peak Streamflow Qualification Codes.